Current | Forecast
Updated: 8:00 PM JST on March 29, 2017
Observed at Hyakuri AB, Japan
Temperature 41°F
Humidity 65%
Dew Point 30°F
Wind North at 0 mph
Pressure 30.18 in (Steady)
Conditions Partly Cloudy
Visibility 6.2 miles
UV 0 out of 16
Clouds (FEW) : 3000 ft
Yesterday's Maximum 54°F
Yesterday's Minimum 32°F approx.
Yesterday's Heating Degree Days 22 approx.
Sunrise5:30 AM JST
Sunset5:58 PM JST
Moon Rise6:17 AM JST
Moon Set7:14 PM JST
Moon PhaseMoon Phase
Waxing Crescent
Raw METARMETAR RJAH 291100Z 00000KT 9999 FEW030 05/M01 Q1022


Monday
. High: 77° F.
Tuesday
. High: 77° F.
Wednesday
. High: 64° F.
Thursday
. High: 71° F.
Friday
. High: 75° F.
Saturday
. High: 73° F.
Sunday
. High: 73° F.
Monday
. High: 71° F.

Units: English | Metric

Find the Weather for any City, State or Zipcode, or Country:

U.S. State List | Severe Weather | Tropical Storms | Ski Conditions
United States | Canada | Central America | South America | Asia | Europe | Australia | Africa | Islands

Weather Underground

© Copyright 2017
The Weather Company, LLC